Buckman, Minnesota
Current Conditions -  °F | °C
As of 2:57 PM on Thursday 23 Oct 2014 (Local Time) from KLXL Reporting Station
Clear Clear  
Wind Chill: 64°   Ceiling: Unl
Heat Index: 64°   Visibility: 10mi
Dew Point: 45°   Wind: 5mph
Humidity: 49%   Direction: 210°SSW
Pressure: 29.93"   Gusts: NA
Location:  45.9°N, 94.09°W
Report Text: KLXL 231957Z AUTO 21004KT 10SM CLR 18/07 A2993 RMK AO2
Loading
Personal Weather Stations






























Interactive Weather Map
Tropical Storm Tracking
New forecast layout! Learn more

10-Day Weather Forecast

Advertisements
Track Severe Weather on mobile